Time;durP1;ratioP1;P1;durP2;ratioP2;P2;SDS_P1;SDS_P2;PMS_P1;PMS_P2;Temp;Humidity;BMP_temperature;BMP_pressure;BME280_temperature;BME280_humidity;BME280_pressure;Samples;Min_cycle;Max_cycle;Signal;HPM_P1;HPM_P2
2022/07/22 00:00:42;;;;;;;10.27;2.88;;;18.60;99.90;;;;;;7341824;19;107734;-73
2022/07/22 00:03:09;;;;;;;8.48;2.88;;;18.60;99.90;;;;;;7340711;19;107992;-72
2022/07/22 00:05:37;;;;;;;11.45;3.13;;;18.50;99.90;;;;;;7341904;19;108151;-72
2022/07/22 00:08:04;;;;;;;10.27;2.97;;;18.50;99.90;;;;;;7341499;19;107412;-73
2022/07/22 00:10:31;;;;;;;6.78;2.70;;;18.40;99.90;;;;;;7341065;19;108327;-72
2022/07/22 00:12:58;;;;;;;12.45;2.97;;;18.40;99.90;;;;;;7341365;19;108063;-72
2022/07/22 00:15:25;;;;;;;12.80;2.53;;;18.40;99.90;;;;;;7345404;19;107886;-73
2022/07/22 00:17:52;;;;;;;7.90;2.30;;;18.40;99.90;;;;;;7337784;19;108671;-74
2022/07/22 00:20:19;;;;;;;8.27;2.38;;;18.30;99.90;;;;;;7342718;19;107930;-72
2022/07/22 00:22:46;;;;;;;7.97;2.88;;;18.30;99.90;;;;;;7341276;19;107712;-73
2022/07/22 00:25:13;;;;;;;7.85;2.67;;;18.20;99.90;;;;;;7340523;19;109068;-72
2022/07/22 00:27:41;;;;;;;10.38;2.55;;;18.20;99.90;;;;;;7341262;19;108963;-72
2022/07/22 00:30:08;;;;;;;8.52;2.53;;;18.20;99.90;;;;;;7341009;19;108028;-72
2022/07/22 00:32:36;;;;;;;9.95;2.50;;;18.20;99.90;;;;;;7339875;19;109457;-73
2022/07/22 00:35:04;;;;;;;8.18;2.80;;;18.10;99.90;;;;;;7340825;19;108043;-72
2022/07/22 00:37:31;;;;;;;7.25;2.20;;;18.10;99.90;;;;;;7344548;19;109146;-72
2022/07/22 00:39:58;;;;;;;12.57;2.70;;;18.10;99.90;;;;;;7340702;19;108532;-73
2022/07/22 00:42:25;;;;;;;8.05;2.40;;;18.00;99.90;;;;;;7338043;19;107637;-72
2022/07/22 00:44:54;;;;;;;7.82;2.90;;;18.00;99.90;;;;;;7337347;19;108940;-72
2022/07/22 00:47:23;;;;;;;7.00;2.75;;;17.90;99.90;;;;;;7339065;19;107965;-72
2022/07/22 00:49:50;;;;;;;8.05;2.75;;;17.80;99.90;;;;;;7340363;19;107480;-72
2022/07/22 00:52:19;;;;;;;10.35;2.70;;;17.80;99.90;;;;;;7340909;19;108561;-72
2022/07/22 00:54:47;;;;;;;5.97;2.35;;;17.80;99.90;;;;;;7340686;19;107854;-72
2022/07/22 00:57:14;;;;;;;12.98;2.72;;;17.80;99.90;;;;;;7344537;19;107152;-73
2022/07/22 00:59:42;;;;;;;7.95;2.35;;;17.70;99.90;;;;;;7340433;19;108859;-73
2022/07/22 01:02:09;;;;;;;6.65;2.33;;;17.70;99.90;;;;;;7340939;19;107219;-72
2022/07/22 01:04:37;;;;;;;11.15;2.67;;;17.70;99.90;;;;;;7339879;19;108981;-72
2022/07/22 01:07:04;;;;;;;9.73;2.25;;;17.60;99.90;;;;;;7339562;19;109429;-72
2022/07/22 01:09:31;;;;;;;7.10;2.65;;;17.50;99.90;;;;;;7337159;19;107764;-73
2022/07/22 01:11:59;;;;;;;10.00;2.58;;;17.50;99.90;;;;;;7339574;19;108597;-73
2022/07/22 01:14:26;;;;;;;7.60;2.90;;;17.50;99.90;;;;;;7339928;19;108036;-72
2022/07/22 01:16:54;;;;;;;9.95;2.78;;;17.40;99.90;;;;;;7338423;19;109471;-72
2022/07/22 01:19:21;;;;;;;7.13;2.50;;;17.30;99.90;;;;;;7345717;19;108483;-73
2022/07/22 01:21:48;;;;;;;6.72;2.63;;;17.30;99.90;;;;;;7340762;19;108079;-73
2022/07/22 01:24:16;;;;;;;12.07;2.95;;;17.20;99.90;;;;;;7340432;19;110339;-72
2022/07/22 01:26:43;;;;;;;12.27;2.80;;;17.20;99.90;;;;;;7340161;19;107392;-73
2022/07/22 01:29:10;;;;;;;7.07;2.28;;;17.20;99.90;;;;;;7340888;19;108022;-72
2022/07/22 01:31:37;;;;;;;8.43;2.88;;;17.20;99.90;;;;;;7339103;19;108828;-72
2022/07/22 01:34:04;;;;;;;9.68;3.17;;;17.10;99.90;;;;;;7337696;19;107917;-73
2022/07/22 01:36:32;;;;;;;7.18;2.60;;;17.10;99.90;;;;;;7339936;19;109725;-73
2022/07/22 01:38:59;;;;;;;9.05;2.60;;;17.10;99.90;;;;;;7334313;19;107987;-72
2022/07/22 01:41:27;;;;;;;6.68;2.15;;;17.00;99.90;;;;;;7346376;19;108092;-73
2022/07/22 01:43:54;;;;;;;7.43;2.45;;;17.00;99.90;;;;;;7335132;19;109720;-72
2022/07/22 01:46:22;;;;;;;8.73;2.97;;;16.90;99.90;;;;;;7339244;19;107926;-73
2022/07/22 01:48:53;;;;;;;5.63;2.45;;;16.90;99.90;;;;;;7339337;19;108426;-73
2022/07/22 01:51:20;;;;;;;9.05;2.53;;;16.80;99.90;;;;;;7336564;19;107909;-72
2022/07/22 01:53:48;;;;;;;7.40;2.38;;;16.80;99.90;;;;;;7339132;19;109069;-73
2022/07/22 01:56:15;;;;;;;5.75;2.20;;;16.80;99.90;;;;;;7338871;19;107137;-73
2022/07/22 01:58:42;;;;;;;10.23;2.40;;;16.80;99.90;;;;;;7335522;19;109059;-72
2022/07/22 02:01:09;;;;;;;6.55;2.58;;;16.80;99.90;;;;;;7340747;19;107909;-72
2022/07/22 02:03:36;;;;;;;6.80;2.85;;;16.80;99.90;;;;;;7343715;19;108203;-72
2022/07/22 02:06:04;;;;;;;9.05;2.72;;;16.80;99.90;;;;;;7339500;19;107825;-72
2022/07/22 02:08:31;;;;;;;6.70;2.47;;;16.70;99.90;;;;;;7338645;19;112303;-72
2022/07/22 02:10:58;;;;;;;7.15;2.70;;;16.70;99.90;;;;;;7338998;19;107943;-72
2022/07/22 02:13:25;;;;;;;8.55;2.78;;;16.70;99.90;;;;;;7338076;19;108198;-73
2022/07/22 02:15:53;;;;;;;14.52;3.03;;;16.70;99.90;;;;;;7338480;19;108031;-73
2022/07/22 02:18:20;;;;;;;8.63;2.90;;;16.70;99.90;;;;;;7337063;19;108980;-72
2022/07/22 02:20:47;;;;;;;5.18;2.83;;;16.70;99.90;;;;;;7339748;19;108354;-73
2022/07/22 02:23:15;;;;;;;7.40;2.97;;;16.60;99.90;;;;;;7337629;19;108894;-73
2022/07/22 02:25:42;;;;;;;5.88;2.70;;;16.60;99.90;;;;;;7342472;19;109102;-73
2022/07/22 02:28:10;;;;;;;7.72;2.63;;;16.50;99.90;;;;;;7336014;19;108537;-73
2022/07/22 02:30:37;;;;;;;7.78;2.47;;;16.50;99.90;;;;;;7338024;19;108929;-72
2022/07/22 02:33:05;;;;;;;10.85;3.08;;;16.50;99.90;;;;;;7337288;19;109074;-72
2022/07/22 02:35:32;;;;;;;11.23;3.33;;;16.50;99.90;;;;;;7334116;19;107975;-72
2022/07/22 02:37:59;;;;;;;8.63;2.72;;;16.40;99.90;;;;;;7335831;19;109964;-72
2022/07/22 02:40:28;;;;;;;11.02;3.15;;;16.40;99.90;;;;;;7336046;19;108028;-72
2022/07/22 02:42:55;;;;;;;7.22;2.47;;;16.40;99.90;;;;;;7338138;19;111710;-72
2022/07/22 02:45:23;;;;;;;6.70;3.15;;;16.40;99.90;;;;;;7335815;19;109442;-72
2022/07/22 02:47:53;;;;;;;7.32;2.80;;;16.40;99.90;;;;;;7342242;19;107104;-73
2022/07/22 02:50:21;;;;;;;4.90;2.53;;;16.30;99.90;;;;;;7335518;19;107876;-72
2022/07/22 02:52:48;;;;;;;5.60;2.72;;;16.30;99.90;;;;;;7337987;19;107993;-73
2022/07/22 02:55:17;;;;;;;6.65;2.80;;;16.30;99.90;;;;;;7337318;19;108148;-72
2022/07/22 02:57:44;;;;;;;7.63;3.20;;;16.30;99.90;;;;;;7336121;19;108890;-72
2022/07/22 03:00:13;;;;;;;8.05;3.00;;;16.30;99.90;;;;;;7336652;19;108081;-73
2022/07/22 03:02:40;;;;;;;8.02;3.92;;;16.30;99.90;;;;;;7336587;19;108272;-73
2022/07/22 03:05:08;;;;;;;6.53;3.20;;;16.20;99.90;;;;;;7336842;19;108900;-72
2022/07/22 03:07:35;;;;;;;8.40;3.38;;;16.20;99.90;;;;;;7345247;19;108495;-72
2022/07/22 03:10:03;;;;;;;13.05;3.58;;;16.10;99.90;;;;;;7341397;19;108064;-73
2022/07/22 03:12:30;;;;;;;8.88;3.05;;;16.10;99.90;;;;;;7345521;19;107619;-73
2022/07/22 03:14:58;;;;;;;5.57;3.22;;;16.10;99.90;;;;;;7342954;19;108194;-73
2022/07/22 03:17:25;;;;;;;8.30;3.00;;;16.10;99.90;;;;;;7343412;19;108874;-73
2022/07/22 03:19:52;;;;;;;8.88;3.50;;;16.10;99.90;;;;;;7343104;19;108555;-73
2022/07/22 03:22:19;;;;;;;11.18;4.10;;;16.10;99.90;;;;;;7343242;19;107109;-73
2022/07/22 03:24:46;;;;;;;7.47;3.22;;;16.10;99.90;;;;;;7343852;19;109737;-72
2022/07/22 03:27:13;;;;;;;9.30;3.40;;;16.10;99.90;;;;;;7344973;19;108638;-73
2022/07/22 03:29:40;;;;;;;7.90;3.03;;;16.10;99.90;;;;;;7348487;19;108182;-72
2022/07/22 03:32:07;;;;;;;8.80;3.60;;;16.10;99.90;;;;;;7340565;19;107770;-72
2022/07/22 03:34:34;;;;;;;9.30;3.30;;;16.00;99.90;;;;;;7345058;19;108265;-73
2022/07/22 03:37:01;;;;;;;8.48;3.13;;;16.00;99.90;;;;;;7345626;19;108875;-72
2022/07/22 03:39:28;;;;;;;8.07;3.13;;;15.90;99.90;;;;;;7341974;19;109030;-72
2022/07/22 03:41:55;;;;;;;6.40;3.28;;;15.90;99.90;;;;;;7344427;19;107368;-72
2022/07/22 03:44:22;;;;;;;9.23;3.38;;;16.00;99.90;;;;;;7343376;19;108887;-72
2022/07/22 03:46:49;;;;;;;12.50;3.88;;;15.90;99.90;;;;;;7344677;19;107915;-72
2022/07/22 03:49:16;;;;;;;7.82;3.90;;;15.90;99.90;;;;;;7340330;19;111406;-72
2022/07/22 03:51:43;;;;;;;9.85;3.40;;;15.80;99.90;;;;;;7347650;19;107833;-72
2022/07/22 03:54:10;;;;;;;10.20;3.53;;;15.80;99.90;;;;;;7342328;19;108163;-73
2022/07/22 03:56:38;;;;;;;7.70;3.65;;;15.80;99.90;;;;;;7341856;19;108183;-73
2022/07/22 03:59:05;;;;;;;10.05;3.15;;;15.80;99.90;;;;;;7341049;19;108028;-72
2022/07/22 04:01:32;;;;;;;6.25;3.63;;;15.80;99.90;;;;;;7341224;19;108482;-73
2022/07/22 04:03:59;;;;;;;5.97;3.45;;;15.80;99.90;;;;;;7343074;19;107836;-73
2022/07/22 04:06:31;;;;;;;9.85;3.40;;;15.80;99.90;;;;;;7345420;19;107881;-73
2022/07/22 04:08:58;;;;;;;3.88;3.30;;;15.80;99.90;;;;;;7342979;19;108242;-73
2022/07/22 04:11:26;;;;;;;9.75;3.72;;;15.80;99.90;;;;;;7343998;19;109281;-73
2022/07/22 04:13:53;;;;;;;9.88;3.47;;;15.80;99.90;;;;;;7349579;19;107956;-73
2022/07/22 04:16:20;;;;;;;7.95;3.10;;;15.80;99.90;;;;;;7344264;19;109321;-73
2022/07/22 04:18:48;;;;;;;9.93;3.20;;;15.80;99.90;;;;;;7343090;19;107976;-73
2022/07/22 04:21:15;;;;;;;6.07;3.08;;;15.70;99.90;;;;;;7344117;19;108074;-73
2022/07/22 04:23:42;;;;;;;5.95;3.20;;;15.70;99.90;;;;;;7343983;19;111294;-73
2022/07/22 04:26:09;;;;;;;8.45;3.35;;;15.70;99.90;;;;;;7343480;19;107524;-73
2022/07/22 04:28:36;;;;;;;6.53;3.25;;;15.70;99.90;;;;;;7344029;19;108509;-73
2022/07/22 04:31:04;;;;;;;5.30;2.90;;;15.70;99.90;;;;;;7343747;19;109004;-72
2022/07/22 04:33:31;;;;;;;6.63;3.72;;;15.70;99.90;;;;;;7342137;19;111074;-73
2022/07/22 04:35:59;;;;;;;7.32;3.30;;;15.80;99.90;;;;;;7348885;19;108188;-73
2022/07/22 04:38:26;;;;;;;7.45;3.50;;;15.80;99.90;;;;;;7342383;19;108069;-73
2022/07/22 04:40:53;;;;;;;7.32;3.33;;;15.80;99.90;;;;;;7343097;19;107186;-73
2022/07/22 04:43:21;;;;;;;11.32;4.32;;;15.80;99.90;;;;;;7342915;19;108814;-72
2022/07/22 04:45:48;;;;;;;5.53;3.03;;;15.70;99.90;;;;;;7344699;19;107960;-73
2022/07/22 04:48:16;;;;;;;6.10;2.70;;;15.80;99.90;;;;;;7342838;19;107362;-73
2022/07/22 04:50:43;;;;;;;6.65;2.80;;;15.80;99.90;;;;;;7342383;19;108169;-73
2022/07/22 04:53:10;;;;;;;6.90;3.60;;;15.80;99.90;;;;;;7343181;19;108037;-73
2022/07/22 04:55:38;;;;;;;11.13;4.00;;;15.90;99.90;;;;;;7342408;19;108377;-73
2022/07/22 04:58:06;;;;;;;12.32;4.07;;;15.90;99.90;;;;;;7347957;19;108881;-73
2022/07/22 05:00:39;;;;;;;9.30;4.75;;;16.00;99.90;;;;;;7340984;19;108519;-73
2022/07/22 05:03:06;;;;;;;11.02;4.93;;;16.00;99.90;;;;;;7341501;19;108898;-73
2022/07/22 05:05:33;;;;;;;13.55;5.78;;;16.00;99.90;;;;;;7342615;19;108083;-73
2022/07/22 05:08:00;;;;;;;14.23;5.93;;;16.10;99.90;;;;;;7341378;19;107709;-73
2022/07/22 05:10:27;;;;;;;10.75;6.07;;;16.10;99.90;;;;;;7341907;19;107804;-73
2022/07/22 05:12:54;;;;;;;10.20;5.72;;;16.20;99.90;;;;;;7340579;19;109757;-73
2022/07/22 05:15:22;;;;;;;15.73;5.55;;;16.30;99.90;;;;;;7341432;19;108159;-73
2022/07/22 05:17:49;;;;;;;8.32;5.20;;;16.30;99.90;;;;;;7346460;19;108483;-73
2022/07/22 05:20:16;;;;;;;13.02;5.55;;;16.30;99.90;;;;;;7341437;19;109510;-73
2022/07/22 05:22:43;;;;;;;11.82;5.97;;;16.40;99.90;;;;;;7340998;19;108498;-73
2022/07/22 05:25:11;;;;;;;9.05;5.55;;;16.50;99.90;;;;;;7340708;19;108419;-73
2022/07/22 05:27:38;;;;;;;16.17;7.45;;;16.50;99.90;;;;;;7340681;19;108182;-73
2022/07/22 05:30:06;;;;;;;17.42;7.97;;;16.60;99.90;;;;;;7338736;19;108918;-73
2022/07/22 05:32:33;;;;;;;17.63;9.02;;;16.50;99.90;;;;;;7340568;19;107128;-73
2022/07/22 05:35:00;;;;;;;18.10;9.07;;;16.60;99.90;;;;;;7339983;19;108488;-73
2022/07/22 05:37:27;;;;;;;21.90;9.45;;;16.60;99.90;;;;;;7339776;19;109232;-73
2022/07/22 05:39:54;;;;;;;22.08;9.25;;;16.60;99.90;;;;;;7343679;19;108320;-73
2022/07/22 05:42:21;;;;;;;21.48;9.43;;;16.60;99.90;;;;;;7339900;19;108409;-73
2022/07/22 05:44:48;;;;;;;20.05;10.40;;;16.70;99.90;;;;;;7340288;19;107922;-73
2022/07/22 05:47:15;;;;;;;21.75;10.52;;;16.80;99.90;;;;;;7336657;19;111221;-73
2022/07/22 05:49:42;;;;;;;22.73;11.23;;;16.80;99.90;;;;;;7337817;19;110471;-73
2022/07/22 05:52:11;;;;;;;26.60;11.05;;;16.80;99.90;;;;;;7335527;19;111814;-73
2022/07/22 05:54:39;;;;;;;25.05;11.35;;;16.80;99.90;;;;;;7336644;19;113320;-73
2022/07/22 05:57:09;;;;;;;21.90;9.93;;;16.90;99.90;;;;;;7336048;19;110225;-73
2022/07/22 05:59:37;;;;;;;23.42;10.63;;;17.00;99.90;;;;;;7337954;19;111426;-73
2022/07/22 06:02:04;;;;;;;19.88;10.93;;;17.10;99.90;;;;;;7341690;19;111968;-73
2022/07/22 06:04:31;;;;;;;22.58;10.98;;;17.20;99.90;;;;;;7335610;19;111295;-73
2022/07/22 06:07:00;;;;;;;24.85;11.10;;;17.40;99.90;;;;;;7338130;19;111758;-73
2022/07/22 06:09:27;;;;;;;26.77;11.38;;;17.50;99.90;;;;;;7335679;19;111215;-73
2022/07/22 06:11:54;;;;;;;18.60;10.30;;;17.50;99.90;;;;;;7335445;19;111004;-73
2022/07/22 06:14:21;;;;;;;17.95;10.50;;;17.60;99.90;;;;;;7336427;19;110744;-73
2022/07/22 06:16:49;;;;;;;25.85;10.32;;;17.70;99.90;;;;;;7336356;19;110143;-73
2022/07/22 06:19:16;;;;;;;18.65;9.98;;;17.90;99.90;;;;;;7332505;19;111865;-73
2022/07/22 06:21:43;;;;;;;18.48;9.45;;;18.00;99.90;;;;;;7336748;19;112033;-73
2022/07/22 06:24:11;;;;;;;21.33;8.98;;;18.10;99.90;;;;;;7346257;19;107929;-73
2022/07/22 06:26:38;;;;;;;14.93;7.80;;;18.20;99.90;;;;;;7340253;19;107979;-73
2022/07/22 06:29:05;;;;;;;12.63;4.45;;;18.20;99.90;;;;;;7337248;19;108918;-73
2022/07/22 06:31:32;;;;;;;12.20;4.70;;;18.20;99.90;;;;;;7336704;19;107435;-73
2022/07/22 06:34:00;;;;;;;13.20;5.25;;;18.20;99.90;;;;;;7340842;19;110492;-73
2022/07/22 06:36:27;;;;;;;11.13;5.38;;;18.30;99.90;;;;;;7338627;19;109196;-73
2022/07/22 06:38:54;;;;;;;8.70;4.68;;;18.40;99.90;;;;;;7337434;19;108041;-73
2022/07/22 06:41:21;;;;;;;15.13;5.68;;;18.50;99.90;;;;;;7335275;19;108487;-73
2022/07/22 06:43:49;;;;;;;10.77;4.38;;;18.60;99.90;;;;;;7343643;19;108083;-73
2022/07/22 06:46:16;;;;;;;14.10;4.55;;;18.70;99.90;;;;;;7350165;19;108155;-73
2022/07/22 06:48:43;;;;;;;10.70;4.13;;;18.70;99.90;;;;;;7345426;19;108866;-73
2022/07/22 06:51:10;;;;;;;11.10;3.95;;;18.80;99.90;;;;;;7344563;19;107892;-73
2022/07/22 06:53:37;;;;;;;11.40;3.80;;;18.90;99.90;;;;;;7341683;19;108325;-74
2022/07/22 06:56:05;;;;;;;11.05;3.25;;;19.10;99.90;;;;;;7340344;19;107838;-73
2022/07/22 06:58:39;;;;;;;9.48;3.05;;;19.20;99.90;;;;;;7343663;19;107462;-73
2022/07/22 07:01:06;;;;;;;15.48;3.60;;;19.30;99.90;;;;;;7342545;19;108587;-73
2022/07/22 07:03:33;;;;;;;7.70;3.65;;;19.20;99.90;;;;;;7344126;19;109222;-74
2022/07/22 07:06:03;;;;;;;9.68;3.10;;;19.20;99.90;;;;;;7344418;19;108268;-73
2022/07/22 07:08:30;;;;;;;10.18;2.95;;;19.30;99.90;;;;;;7349343;19;107908;-73
2022/07/22 07:10:58;;;;;;;11.48;2.80;;;19.40;99.90;;;;;;7339440;19;107913;-73
2022/07/22 07:13:26;;;;;;;14.30;3.10;;;19.50;99.90;;;;;;7345385;19;108111;-73
2022/07/22 07:15:53;;;;;;;10.00;2.88;;;19.50;99.90;;;;;;7342088;19;107847;-73
2022/07/22 07:18:20;;;;;;;8.98;2.40;;;19.50;99.90;;;;;;7344767;19;107911;-73
2022/07/22 07:20:47;;;;;;;10.20;2.60;;;19.50;99.90;;;;;;7341932;19;107550;-73
2022/07/22 07:23:14;;;;;;;5.30;2.60;;;19.70;99.90;;;;;;7343737;19;107868;-72
2022/07/22 07:25:41;;;;;;;6.22;2.47;;;19.70;99.90;;;;;;7345592;19;109286;-73
2022/07/22 07:28:08;;;;;;;6.45;3.30;;;19.70;99.90;;;;;;7350722;19;108531;-73
2022/07/22 07:30:36;;;;;;;8.50;3.33;;;19.60;99.90;;;;;;7342799;19;107796;-73
2022/07/22 07:33:03;;;;;;;6.55;3.40;;;19.60;99.90;;;;;;7343009;19;110985;-72
2022/07/22 07:35:30;;;;;;;10.43;3.92;;;19.60;99.90;;;;;;7344051;19;108829;-72
2022/07/22 07:37:58;;;;;;;9.23;3.33;;;19.50;99.90;;;;;;7344489;19;108289;-73
2022/07/22 07:40:25;;;;;;;6.10;3.83;;;19.50;99.90;;;;;;7343465;19;110375;-73
2022/07/22 07:42:53;;;;;;;7.18;3.80;;;19.50;99.90;;;;;;7343607;19;109011;-72
2022/07/22 07:45:30;;;;;;;12.35;4.38;;;19.60;99.90;;;;;;7344943;19;108002;-72
2022/07/22 07:47:57;;;;;;;13.90;3.70;;;19.70;99.90;;;;;;7345018;19;108470;-72
2022/07/22 07:50:25;;;;;;;8.15;4.07;;;19.70;99.90;;;;;;7349152;19;109025;-72
2022/07/22 07:52:52;;;;;;;10.38;4.18;;;19.80;99.90;;;;;;7344979;19;107567;-72
2022/07/22 07:55:20;;;;;;;8.15;3.58;;;19.90;99.90;;;;;;7344531;19;108388;-72
2022/07/22 07:57:51;;;;;;;6.07;3.72;;;20.00;99.90;;;;;;7344393;19;107614;-72
2022/07/22 08:00:32;;;;;;;6.20;3.67;;;20.10;99.90;;;;;;7341890;19;107110;-73
2022/07/22 08:02:59;;;;;;;7.60;3.88;;;20.10;99.90;;;;;;7342379;19;108245;-72
2022/07/22 08:05:27;;;;;;;10.63;3.78;;;20.20;99.90;;;;;;7343997;19;109618;-72
2022/07/22 08:07:55;;;;;;;5.93;3.40;;;20.30;99.90;;;;;;7344132;19;107296;-72
2022/07/22 08:10:23;;;;;;;8.18;3.50;;;20.30;99.90;;;;;;7342463;19;108812;-72
2022/07/22 08:13:10;;;;;;;7.80;3.85;;;20.40;99.90;;;;;;7347083;19;108081;-73
2022/07/22 08:15:37;;;;;;;13.60;3.88;;;20.50;99.90;;;;;;7341700;19;109032;-73
2022/07/22 08:18:04;;;;;;;8.50;3.45;;;20.60;99.90;;;;;;7343985;19;107977;-73
2022/07/22 08:20:32;;;;;;;15.10;3.50;;;20.70;99.90;;;;;;7342545;19;110536;-73
2022/07/22 08:22:59;;;;;;;4.88;3.28;;;20.70;99.90;;;;;;7343709;19;107927;-72
2022/07/22 08:25:26;;;;;;;6.95;3.00;;;20.70;99.90;;;;;;7343885;19;108338;-72
2022/07/22 08:27:54;;;;;;;9.15;3.35;;;20.70;99.90;;;;;;7344719;19;109314;-72
2022/07/22 08:30:23;;;;;;;7.18;3.00;;;20.70;99.90;;;;;;7344086;19;108832;-72
2022/07/22 08:32:50;;;;;;;7.93;3.40;;;20.70;99.90;;;;;;7341410;19;108128;-72
2022/07/22 08:35:20;;;;;;;10.70;3.10;;;20.70;99.90;;;;;;7347641;19;108216;-72
2022/07/22 08:37:48;;;;;;;6.63;3.05;;;20.60;99.90;;;;;;7343489;19;109302;-72
2022/07/22 08:40:17;;;;;;;11.63;3.20;;;20.70;99.90;;;;;;7342805;19;109096;-72
2022/07/22 08:42:46;;;;;;;7.55;3.10;;;20.80;99.90;;;;;;7344497;19;110156;-72
2022/07/22 08:45:14;;;;;;;6.05;3.08;;;20.80;99.90;;;;;;7343698;19;108241;-72
2022/07/22 08:47:47;;;;;;;6.85;2.90;;;21.10;99.90;;;;;;7344466;19;108168;-72
2022/07/22 08:50:15;;;;;;;5.07;2.90;;;21.30;99.90;;;;;;7343920;19;111399;-72
2022/07/22 08:52:43;;;;;;;4.68;2.83;;;21.50;99.90;;;;;;7343192;19;107983;-72
2022/07/22 08:55:10;;;;;;;5.55;2.80;;;21.60;99.90;;;;;;7343166;19;109337;-72
2022/07/22 08:57:38;;;;;;;6.07;2.88;;;21.70;99.90;;;;;;7348344;19;110318;-72
2022/07/22 09:00:13;;;;;;;8.63;3.20;;;21.70;99.90;;;;;;7340759;19;109440;-72
2022/07/22 09:02:42;;;;;;;7.53;3.30;;;21.50;99.90;;;;;;7343059;19;109198;-72
2022/07/22 09:05:13;;;;;;;9.60;3.35;;;21.30;99.90;;;;;;7339534;19;107916;-72
2022/07/22 09:08:00;;;;;;;7.40;2.88;;;21.30;99.90;;;;;;7343414;19;110389;-72
2022/07/22 09:10:33;;;;;;;7.57;3.30;;;21.40;99.90;;;;;;7343493;19;108097;-72
2022/07/22 09:13:02;;;;;;;13.05;3.15;;;21.70;99.90;;;;;;7343303;19;107966;-72
2022/07/22 09:15:32;;;;;;;5.57;3.30;;;22.10;99.90;;;;;;7342664;19;108323;-72
2022/07/22 09:17:59;;;;;;;10.82;3.28;;;22.30;99.90;;;;;;7342797;19;109103;-72
2022/07/22 09:20:37;;;;;;;5.72;2.95;;;22.30;99.90;;;;;;7340136;19;108565;-72
2022/07/22 09:23:17;;;;;;;6.70;3.40;;;22.40;99.90;;;;;;7343089;19;109023;-72
2022/07/22 09:25:44;;;;;;;8.98;3.40;;;22.30;99.90;;;;;;7342732;19;108377;-72
2022/07/22 09:28:19;;;;;;;5.57;3.25;;;22.20;99.90;;;;;;7342196;19;107070;-72
2022/07/22 09:30:54;;;;;;;6.03;2.90;;;22.10;99.90;;;;;;7342093;19;108810;-72
2022/07/22 09:33:23;;;;;;;7.72;3.45;;;22.20;99.90;;;;;;7342448;19;107865;-72
2022/07/22 09:35:51;;;;;;;9.32;3.25;;;22.30;99.90;;;;;;7339802;19;108050;-72
2022/07/22 09:38:27;;;;;;;13.15;3.35;;;22.30;99.90;;;;;;7341619;19;109331;-72
2022/07/22 09:40:55;;;;;;;11.07;3.47;;;22.40;99.90;;;;;;7345296;19;107418;-72
2022/07/22 09:43:22;;;;;;;8.07;3.30;;;22.50;99.90;;;;;;7341041;19;108958;-72
2022/07/22 09:45:57;;;;;;;5.97;2.90;;;22.60;99.90;;;;;;7342559;19;107893;-72
2022/07/22 09:48:25;;;;;;;8.98;3.20;;;22.80;99.90;;;;;;7340821;19;107752;-72
2022/07/22 09:50:55;;;;;;;6.60;3.00;;;23.00;99.90;;;;;;7342282;19;108817;-75
2022/07/22 09:53:27;;;;;;;7.90;3.15;;;23.20;99.90;;;;;;7340299;19;107768;-72
2022/07/22 09:55:56;;;;;;;10.70;3.33;;;23.40;99.90;;;;;;7341458;19;107565;-71
2022/07/22 09:58:24;;;;;;;5.13;2.97;;;23.40;99.90;;;;;;7339162;19;109625;-71
2022/07/22 10:00:54;;;;;;;8.20;3.08;;;23.60;99.90;;;;;;7338744;19;108463;-71
2022/07/22 10:03:27;;;;;;;6.28;3.55;;;23.60;99.90;;;;;;7343621;19;108240;-71
2022/07/22 10:05:55;;;;;;;8.82;3.08;;;23.70;99.90;;;;;;7340194;19;107937;-71
2022/07/22 10:08:25;;;;;;;9.63;3.63;;;23.60;99.90;;;;;;7338550;19;108157;-72
2022/07/22 10:10:57;;;;;;;4.82;2.97;;;23.70;99.90;;;;;;7339420;19;109213;-72
2022/07/22 10:13:25;;;;;;;8.90;3.63;;;23.80;99.90;;;;;;7338830;19;108317;-72
2022/07/22 10:15:54;;;;;;;5.90;2.97;;;23.90;99.90;;;;;;7339649;19;111612;-73
2022/07/22 10:18:22;;;;;;;6.57;3.15;;;23.90;99.30;;;;;;7335536;19;109088;-72
2022/07/22 10:21:04;;;;;;;6.88;3.05;;;23.70;99.00;;;;;;7337271;19;108352;-73
2022/07/22 10:23:32;;;;;;;3.88;3.20;;;23.50;99.30;;;;;;7338670;19;108787;-72
2022/07/22 10:26:02;;;;;;;7.93;3.70;;;23.50;99.90;;;;;;7342270;19;108062;-72
2022/07/22 10:28:37;;;;;;;6.60;3.33;;;23.50;99.90;;;;;;7340578;19;108451;-72
2022/07/22 10:31:24;;;;;;;9.50;3.42;;;23.60;99.70;;;;;;7337462;19;108922;-72
2022/07/22 10:33:56;;;;;;;8.68;3.75;;;23.50;99.40;;;;;;7338608;19;108437;-72
2022/07/22 10:36:35;;;;;;;5.63;3.40;;;23.60;99.50;;;;;;7338669;19;108085;-71
2022/07/22 10:39:10;;;;;;;7.15;3.40;;;23.60;99.10;;;;;;7340528;19;108851;-72
2022/07/22 10:41:38;;;;;;;6.13;3.42;;;23.70;99.30;;;;;;7338354;19;108660;-72
2022/07/22 10:44:06;;;;;;;6.97;3.10;;;23.60;98.40;;;;;;7338723;19;107177;-72
2022/07/22 10:46:53;;;;;;;14.57;3.55;;;23.50;99.40;;;;;;7339636;19;108174;-72
2022/07/22 10:49:24;;;;;;;9.77;3.40;;;23.70;99.60;;;;;;7345208;19;108763;-72
2022/07/22 10:52:32;;;;;;;6.75;3.70;;;23.90;99.70;;;;;;7339475;19;108366;-72
2022/07/22 10:55:18;;;;;;;5.33;3.00;;;24.20;99.70;;;;;;7337481;19;109177;-72
2022/07/22 10:57:46;;;;;;;9.80;3.97;;;24.50;99.60;;;;;;7332244;19;109506;-71
2022/07/22 11:00:13;;;;;;;7.38;3.60;;;24.60;99.70;;;;;;7338566;19;109037;-72
2022/07/22 11:02:41;;;;;;;5.65;3.38;;;24.60;98.60;;;;;;7337836;19;108894;-72
2022/07/22 11:05:08;;;;;;;8.10;3.90;;;24.60;98.90;;;;;;7334117;19;108281;-71
2022/07/22 11:07:43;;;;;;;8.55;3.80;;;24.60;97.50;;;;;;7337848;19;109828;-72
2022/07/22 11:10:11;;;;;;;6.07;3.58;;;24.60;98.20;;;;;;7336229;19;107926;-72
2022/07/22 11:12:46;;;;;;;8.98;3.40;;;24.80;98.50;;;;;;7344214;19;108267;-72
2022/07/22 11:15:13;;;;;;;5.38;3.20;;;25.00;98.00;;;;;;7338679;19;108046;-72
2022/07/22 11:17:40;;;;;;;10.43;3.40;;;25.00;97.10;;;;;;7335651;19;111606;-72
2022/07/22 11:20:09;;;;;;;5.25;3.70;;;24.90;97.00;;;;;;7338632;19;110834;-72
2022/07/22 11:22:37;;;;;;;5.47;3.90;;;24.90;97.40;;;;;;7336826;19;107911;-72
2022/07/22 11:25:08;;;;;;;6.53;3.33;;;25.00;97.80;;;;;;7338903;19;108462;-72
2022/07/22 11:27:35;;;;;;;11.45;3.30;;;24.90;96.30;;;;;;7337831;19;109308;-72
2022/07/22 11:30:06;;;;;;;8.30;3.17;;;24.90;97.60;;;;;;7343432;19;108092;-72
2022/07/22 11:32:40;;;;;;;7.90;3.72;;;24.90;97.20;;;;;;7350584;19;111988;-73
2022/07/22 11:35:11;;;;;;;6.40;3.38;;;24.90;96.20;;;;;;7345005;19;107271;-72
2022/07/22 11:37:38;;;;;;;9.52;3.47;;;24.80;97.20;;;;;;7343466;19;108312;-72
2022/07/22 11:40:08;;;;;;;7.55;3.90;;;24.80;96.80;;;;;;7344632;19;107873;-71
2022/07/22 11:42:36;;;;;;;5.57;3.38;;;24.90;96.50;;;;;;7344384;19;107179;-72
2022/07/22 11:45:04;;;;;;;7.38;3.83;;;24.90;96.90;;;;;;7342260;19;107520;-72
2022/07/22 11:47:31;;;;;;;7.57;3.17;;;24.80;96.20;;;;;;7344854;19;109591;-72
2022/07/22 11:49:58;;;;;;;6.10;3.55;;;25.00;96.70;;;;;;7344850;19;108272;-72
2022/07/22 11:52:25;;;;;;;6.82;3.85;;;24.80;95.10;;;;;;7343792;19;107168;-72
2022/07/22 11:54:52;;;;;;;6.45;3.78;;;24.70;96.60;;;;;;7349546;19;107933;-72
2022/07/22 11:57:20;;;;;;;5.32;3.67;;;25.10;96.60;;;;;;7344530;19;107194;-72
2022/07/22 11:59:47;;;;;;;6.20;3.60;;;25.10;95.90;;;;;;7344105;19;109385;-72
2022/07/22 12:02:14;;;;;;;8.75;3.80;;;25.10;96.30;;;;;;7342574;19;107951;-73
2022/07/22 12:04:45;;;;;;;8.95;3.90;;;25.10;96.40;;;;;;7343755;19;107162;-72
2022/07/22 12:07:13;;;;;;;4.95;3.78;;;25.20;96.80;;;;;;7343917;19;108845;-72
2022/07/22 12:09:42;;;;;;;6.28;4.18;;;25.20;95.60;;;;;;7342361;19;108700;-72
2022/07/22 12:12:09;;;;;;;9.40;4.05;;;25.20;95.60;;;;;;7345185;19;108909;-72
2022/07/22 12:14:44;;;;;;;6.90;3.97;;;25.30;96.00;;;;;;7339331;19;109426;-72
2022/07/22 12:17:15;;;;;;;7.97;3.67;;;25.40;95.90;;;;;;7345044;19;108442;-72
2022/07/22 12:19:42;;;;;;;7.25;4.50;;;25.40;95.90;;;;;;7343538;19;107880;-72
2022/07/22 12:22:19;;;;;;;7.53;4.05;;;25.60;96.20;;;;;;7341446;19;108705;-72
2022/07/22 12:25:03;;;;;;;5.05;3.60;;;25.70;96.20;;;;;;7343668;19;108255;-72
2022/07/22 12:27:31;;;;;;;6.47;4.22;;;25.80;95.70;;;;;;7344270;19;108841;-72
2022/07/22 12:29:58;;;;;;;8.15;4.18;;;25.60;94.80;;;;;;7342781;19;107967;-72
2022/07/22 12:32:28;;;;;;;5.55;3.80;;;25.50;95.90;;;;;;7342548;19;108326;-72
2022/07/22 12:34:59;;;;;;;8.57;3.95;;;25.50;95.50;;;;;;7343655;19;108887;-72
2022/07/22 12:37:40;;;;;;;9.25;4.60;;;25.60;96.10;;;;;;7343345;19;110363;-72
2022/07/22 12:40:17;;;;;;;8.35;4.30;;;25.60;94.30;;;;;;7345981;19;108690;-72